Airfield :











YOU CAN JOIN US ON...

 
LOGIN :

Register | Disclaimer

   EN    FR    IT 

 









Legend :    VFR   Marginal VFR   IFR   Intensive IFR   Very Intensive IFR
Visi :
Ceiling :
>= 8 km
>= 3000ft
5 to 8 km
1000 to 3000 ft
1500m to 5 km
500 to 1000 ft
800 to 1500m
200 to 500 ft
< 800m
< 200 ft
Symbols :   Thunderstorms  Fog  Heavy snow  Heavy precipitations  Wind > 20 kt






- Airport Elevation : 2205 ft


KVGT - North Las Vegas

CURRENT METAR :
  • 172153Z 00000KT 10SM CLR 46/M01 A2972 RMK AO2 SLP043 T04561006

EXPIRED METARs :
  • 172053Z 26006KT 10SM CLR 45/00 A2974 RMK AO2 SLP051 T04500000 58024
  • 171953Z 22004KT 10SM CLR 44/01 A2977 RMK AO2 SLP061 T04390011

TAF KVGT
Valid from the 17 at 18:00 until the 18 at 18:00 UTC


171741Z 1718/1818 13009KT P6SM FEW140 SCT180 BKN250
FM180500 34007KT P6SM FEW140 BKN180
KZLA FIR / North America



MET'MAP, your aeronautical weather chart ! - Copyright ORBIFLY December 2007 - Disclaimer

ORBIFLY MET'MAP TEAM :

Programming & Development : Alexandra Zaïnal
Concept & original design : Baudouin d'Aumeries
Assistance for programming : Marc-Olivier Méhu
Technical & hardware support : Manuel Goepfert

Contact : metmap@orbifly.com




SOURCES & CREDITS :

   NOAA       Earth
Advisory